createdAt,value
2018-04-02T00:00:01.145Z,8.50
2018-04-02T00:01:03.625Z,8.60
2018-04-02T00:02:06.097Z,8.60
2018-04-02T00:03:08.561Z,8.60
2018-04-02T00:04:11.030Z,8.60
2018-04-02T00:05:13.498Z,8.60
2018-04-02T00:06:16.318Z,8.60
2018-04-02T00:07:18.787Z,8.60
2018-04-02T00:08:21.257Z,8.60
2018-04-02T00:09:23.725Z,8.60
2018-04-02T00:10:26.206Z,8.60
2018-04-02T00:11:28.989Z,8.60
2018-04-02T00:12:31.457Z,8.60
2018-04-02T00:13:33.925Z,8.60
2018-04-02T00:14:36.393Z,8.60
2018-04-02T00:15:38.865Z,8.60
2018-04-02T00:16:42.126Z,8.60
2018-04-02T00:17:44.595Z,8.60
2018-04-02T00:18:47.064Z,8.60
2018-04-02T00:19:49.545Z,8.60
2018-04-02T00:20:52.781Z,8.60
2018-04-02T00:21:55.265Z,8.60
2018-04-02T00:22:57.733Z,8.60
2018-04-02T00:24:00.254Z,8.60
2018-04-02T00:25:03.446Z,8.60
2018-04-02T00:26:05.917Z,8.60
2018-04-02T00:27:08.680Z,8.60
2018-04-02T00:28:11.146Z,8.60
2018-04-02T00:29:13.614Z,8.60
2018-04-02T00:30:16.105Z,8.50
2018-04-02T00:31:18.573Z,8.50
2018-04-02T00:32:21.061Z,8.60
2018-04-02T00:33:24.307Z,8.60
2018-04-02T00:34:26.786Z,8.60
2018-04-02T00:35:29.257Z,8.60
2018-04-02T00:36:31.725Z,8.60
2018-04-02T00:37:34.488Z,8.60
2018-04-02T00:38:36.961Z,8.60
2018-04-02T00:39:39.431Z,8.60
2018-04-02T00:40:42.669Z,8.60
2018-04-02T00:41:45.137Z,8.60
2018-04-02T00:42:47.621Z,8.60
2018-04-02T00:43:50.093Z,8.60
2018-04-02T00:44:52.564Z,8.60
2018-04-02T00:45:55.032Z,8.60
2018-04-02T00:46:58.269Z,8.60
2018-04-02T00:48:00.754Z,8.60
2018-04-02T00:49:03.225Z,8.60
2018-04-02T00:50:05.693Z,8.60
2018-04-02T00:51:08.161Z,8.60
2018-04-02T00:52:10.634Z,8.60
2018-04-02T00:53:13.114Z,8.60
2018-04-02T00:54:16.351Z,8.60
2018-04-02T00:55:19.449Z,8.60
2018-04-02T00:56:21.298Z,8.60
2018-04-02T00:57:23.766Z,8.60
2018-04-02T00:58:26.533Z,8.50
2018-04-02T00:59:29.006Z,8.50
2018-04-02T01:00:31.477Z,8.50
2018-04-02T01:01:34.758Z,8.50
2018-04-02T01:02:37.997Z,8.50
2018-04-02T01:03:40.485Z,8.50
2018-04-02T01:04:42.954Z,8.50
2018-04-02T01:05:45.421Z,8.50
2018-04-02T01:06:47.917Z,8.50
2018-04-02T01:07:51.154Z,8.50
2018-04-02T01:08:53.633Z,8.40
2018-04-02T01:09:56.119Z,8.50
2018-04-02T01:10:59.360Z,8.40
2018-04-02T01:12:01.825Z,8.40
2018-04-02T01:13:04.299Z,8.40
2018-04-02T01:14:07.081Z,8.40
2018-04-02T01:15:09.553Z,8.40
2018-04-02T01:16:12.024Z,8.40
2018-04-02T01:17:15.257Z,8.40
2018-04-02T01:18:17.740Z,8.40
2018-04-02T01:19:20.227Z,8.40
2018-04-02T01:20:22.697Z,8.40
2018-04-02T01:21:25.169Z,8.40
2018-04-02T01:22:28.409Z,8.40
2018-04-02T01:23:30.877Z,8.40
2018-04-02T01:24:33.373Z,8.40
2018-04-02T01:25:36.609Z,8.40
2018-04-02T01:26:39.073Z,8.40
2018-04-02T01:27:41.548Z,8.40
2018-04-02T01:28:44.013Z,8.40
2018-04-02T01:29:46.498Z,8.40
2018-04-02T01:30:48.971Z,8.40
2018-04-02T01:31:51.434Z,8.40
2018-04-02T01:32:53.900Z,8.40
2018-04-02T01:33:56.373Z,8.30
2018-04-02T01:34:58.860Z,8.30
2018-04-02T01:36:01.326Z,8.30
2018-04-02T01:37:03.798Z,8.30
2018-04-02T01:38:06.262Z,8.30
2018-04-02T01:39:08.729Z,8.30
2018-04-02T01:40:11.221Z,8.30
2018-04-02T01:41:13.690Z,8.30
2018-04-02T01:42:16.158Z,8.20
2018-04-02T01:43:18.626Z,8.20
2018-04-02T01:44:21.089Z,8.20
2018-04-02T01:45:23.583Z,8.20
2018-04-02T01:46:26.049Z,8.20
2018-04-02T01:47:29.282Z,8.20
2018-04-02T01:48:31.757Z,8.20
2018-04-02T01:49:34.225Z,8.20
2018-04-02T01:50:36.713Z,8.10
2018-04-02T01:51:39.185Z,8.10
2018-04-02T01:52:41.650Z,8.10
2018-04-02T01:53:44.882Z,8.10
2018-04-02T01:54:47.344Z,8.10
2018-04-02T01:55:50.157Z,8.10
2018-04-02T01:56:52.640Z,8.10
2018-04-02T01:57:55.874Z,8.10
2018-04-02T01:58:58.352Z,8.10
2018-04-02T02:00:00.938Z,8.10
2018-04-02T02:01:03.421Z,8.10
2018-04-02T02:02:06.658Z,8.10
2018-04-02T02:03:09.125Z,8.00
2018-04-02T02:04:11.597Z,8.00
2018-04-02T02:05:14.086Z,8.00
2018-04-02T02:06:16.573Z,8.00
2018-04-02T02:07:19.043Z,8.00
2018-04-02T02:08:21.508Z,8.00
2018-04-02T02:09:23.972Z,8.00
2018-04-02T02:10:26.453Z,8.00
2018-04-02T02:11:28.937Z,7.90
2018-04-02T02:12:31.405Z,7.90
2018-04-02T02:13:33.872Z,7.90
2018-04-02T02:14:36.345Z,7.90
2018-04-02T02:15:38.814Z,7.90
2018-04-02T02:16:41.589Z,7.90
2018-04-02T02:17:44.057Z,7.90
2018-04-02T02:18:46.529Z,7.90
2018-04-02T02:19:49.051Z,7.90
2018-04-02T02:20:51.522Z,7.90
2018-04-02T02:21:54.009Z,7.90
2018-04-02T02:22:56.525Z,7.90
2018-04-02T02:23:58.993Z,7.90
2018-04-02T02:25:01.454Z,7.90
2018-04-02T02:26:03.921Z,7.80
2018-04-02T02:27:06.408Z,7.80
2018-04-02T02:28:08.899Z,7.80
2018-04-02T02:29:11.365Z,7.80
2018-04-02T02:30:13.835Z,7.80
2018-04-02T02:31:16.306Z,7.80
2018-04-02T02:32:19.578Z,7.80
2018-04-02T02:33:22.056Z,7.70
2018-04-02T02:34:24.525Z,7.80
2018-04-02T02:35:27.753Z,7.70
2018-04-02T02:36:30.421Z,7.70
2018-04-02T02:37:32.924Z,7.80
2018-04-02T02:38:35.400Z,7.70
2018-04-02T02:39:38.636Z,7.80
2018-04-02T02:40:41.119Z,7.70
2018-04-02T02:41:43.594Z,7.70
2018-04-02T02:42:46.089Z,7.80
2018-04-02T02:43:49.322Z,7.70
2018-04-02T02:44:51.805Z,7.70
2018-04-02T02:45:54.274Z,7.70
2018-04-02T02:46:57.505Z,7.70
2018-04-02T02:47:59.988Z,7.70
2018-04-02T02:49:02.454Z,7.70
2018-04-02T02:50:04.929Z,7.70
2018-04-02T02:51:07.400Z,7.70
2018-04-02T02:52:09.873Z,7.70
2018-04-02T02:53:12.362Z,7.70
2018-04-02T02:54:15.605Z,7.70
2018-04-02T02:55:18.078Z,7.70
2018-04-02T02:56:20.542Z,7.70
2018-04-02T02:57:23.010Z,7.70
2018-04-02T02:58:25.497Z,7.70
2018-04-02T02:59:28.729Z,7.70
2018-04-02T03:00:31.245Z,7.70
2018-04-02T03:01:34.481Z,7.70
2018-04-02T03:02:36.956Z,7.70
2018-04-02T03:03:39.442Z,7.70
2018-04-02T03:04:42.682Z,7.70
2018-04-02T03:05:45.148Z,7.70
2018-04-02T03:06:47.622Z,7.70
2018-04-02T03:07:50.098Z,7.70
2018-04-02T03:08:52.586Z,7.80
2018-04-02T03:09:55.822Z,7.80
2018-04-02T03:10:58.293Z,7.70
2018-04-02T03:12:00.761Z,7.80
2018-04-02T03:13:03.225Z,7.80
2018-04-02T03:14:05.717Z,7.80
2018-04-02T03:15:08.185Z,7.80
2018-04-02T03:16:10.653Z,7.80
2018-04-02T03:17:13.902Z,7.80
2018-04-02T03:18:17.055Z,7.80
2018-04-02T03:19:19.553Z,7.80
2018-04-02T03:20:22.025Z,7.80
2018-04-02T03:21:24.493Z,7.80
2018-04-02T03:22:26.959Z,7.80
2018-04-02T03:23:29.432Z,7.90
2018-04-02T03:24:31.916Z,7.90
2018-04-02T03:25:35.149Z,7.90
2018-04-02T03:26:37.622Z,7.90
2018-04-02T03:27:40.095Z,7.90
2018-04-02T03:28:42.562Z,7.90
2018-04-02T03:29:45.345Z,7.90
2018-04-02T03:30:47.825Z,7.90
2018-04-02T03:31:50.290Z,7.90
2018-04-02T03:32:53.525Z,7.90
2018-04-02T03:33:55.993Z,7.90
2018-04-02T03:34:58.509Z,7.90
2018-04-02T03:36:01.742Z,7.90
2018-04-02T03:37:04.219Z,7.90
2018-04-02T03:38:06.685Z,7.90
2018-04-02T03:39:09.353Z,7.80
2018-04-02T03:40:11.846Z,7.80
2018-04-02T03:41:15.091Z,7.80
2018-04-02T03:42:17.558Z,7.80
2018-04-02T03:43:20.025Z,7.80
2018-04-02T03:44:22.497Z,7.80
2018-04-02T03:45:25.006Z,7.80
2018-04-02T03:46:27.476Z,7.80
2018-04-02T03:47:29.943Z,7.80
2018-04-02T03:48:32.409Z,7.80
2018-04-02T03:49:34.873Z,7.80
2018-04-02T03:50:37.361Z,7.80
2018-04-02T03:51:39.830Z,7.80
2018-04-02T03:52:42.306Z,7.80
2018-04-02T03:53:44.776Z,7.80
2018-04-02T03:54:47.241Z,7.80
2018-04-02T03:55:49.744Z,7.70
2018-04-02T03:56:52.974Z,7.70
2018-04-02T03:57:55.441Z,7.70
2018-04-02T03:58:57.910Z,7.70
2018-04-02T04:00:00.369Z,7.70
2018-04-02T04:01:02.858Z,7.70
2018-04-02T04:02:05.322Z,7.70
2018-04-02T04:03:07.786Z,7.70
2018-04-02T04:04:10.253Z,7.70
2018-04-02T04:05:12.717Z,7.70
2018-04-02T04:06:15.486Z,7.70
2018-04-02T04:07:17.956Z,7.70
2018-04-02T04:08:20.427Z,7.70
2018-04-02T04:09:22.892Z,7.70
2018-04-02T04:10:25.360Z,7.70
2018-04-02T04:11:28.608Z,7.60
2018-04-02T04:12:31.074Z,7.60
2018-04-02T04:13:33.541Z,7.70
2018-04-02T04:14:36.005Z,7.70
2018-04-02T04:15:38.472Z,7.60
2018-04-02T04:16:40.956Z,7.60
2018-04-02T04:17:43.422Z,7.60
2018-04-02T04:18:45.889Z,7.60
2018-04-02T04:19:49.153Z,7.60
2018-04-02T04:20:51.619Z,7.60
2018-04-02T04:21:54.121Z,7.60
2018-04-02T04:22:56.589Z,7.60
2018-04-02T04:23:59.054Z,7.60
2018-04-02T04:25:01.526Z,7.60
2018-04-02T04:26:03.997Z,7.60
2018-04-02T04:27:06.476Z,7.60
2018-04-02T04:28:08.937Z,7.60
2018-04-02T04:29:11.404Z,7.60
2018-04-02T04:30:13.873Z,7.60
2018-04-02T04:31:16.350Z,7.60
2018-04-02T04:32:18.829Z,7.60
2018-04-02T04:33:21.310Z,7.60
2018-04-02T04:34:24.540Z,7.50
2018-04-02T04:35:27.033Z,7.50
2018-04-02T04:36:29.497Z,7.50
2018-04-02T04:37:32.036Z,7.50
2018-04-02T04:38:34.501Z,7.50
2018-04-02T04:39:36.969Z,7.50
2018-04-02T04:40:39.433Z,7.50
2018-04-02T04:41:41.897Z,7.50
2018-04-02T04:42:44.710Z,7.50
2018-04-02T04:43:47.208Z,7.50
2018-04-02T04:44:49.673Z,7.50
2018-04-02T04:45:52.148Z,7.50
2018-04-02T04:46:54.618Z,7.50
2018-04-02T04:47:57.105Z,7.40
2018-04-02T04:48:59.569Z,7.40
2018-04-02T04:50:02.038Z,7.40
2018-04-02T04:51:04.505Z,7.40
2018-04-02T04:52:06.978Z,7.40
2018-04-02T04:53:09.460Z,7.30
2018-04-02T04:54:12.699Z,7.30
2018-04-02T04:55:15.157Z,7.30
2018-04-02T04:56:17.621Z,7.40
2018-04-02T04:57:20.090Z,7.40
2018-04-02T04:58:22.578Z,7.40
2018-04-02T04:59:25.044Z,7.40
2018-04-02T05:00:27.517Z,7.40
2018-04-02T05:01:31.501Z,7.40
2018-04-02T05:02:33.965Z,7.40
2018-04-02T05:03:36.445Z,7.50
2018-04-02T05:04:38.913Z,7.50
2018-04-02T05:05:41.385Z,7.50
2018-04-02T05:06:43.854Z,7.50
2018-04-02T05:07:47.085Z,7.60
2018-04-02T05:08:49.573Z,7.50
2018-04-02T05:09:52.049Z,7.60
2018-04-02T05:10:54.514Z,7.60
2018-04-02T05:11:57.014Z,7.60
2018-04-02T05:12:59.485Z,7.60
2018-04-02T05:14:01.969Z,7.60
2018-04-02T05:15:04.438Z,7.60
2018-04-02T05:16:06.900Z,7.60
2018-04-02T05:17:09.366Z,7.70
2018-04-02T05:19:18.553Z,7.70
2018-04-02T05:20:21.785Z,7.70
2018-04-02T05:21:24.256Z,7.70
2018-04-02T05:22:26.725Z,7.70
2018-04-02T05:23:29.189Z,7.70
2018-04-02T05:24:31.674Z,7.70
2018-04-02T05:25:34.141Z,7.70
2018-04-02T05:26:36.607Z,7.70
2018-04-02T05:27:39.080Z,7.70
2018-04-02T05:28:42.341Z,7.70
2018-04-02T05:29:44.821Z,7.70
2018-04-02T05:30:48.050Z,7.80
2018-04-02T05:31:50.584Z,7.70
2018-04-02T05:32:53.823Z,7.80
2018-04-02T05:33:56.289Z,7.80
2018-04-02T05:34:58.779Z,7.80
2018-04-02T05:36:02.013Z,7.80
2018-04-02T05:37:04.507Z,7.80
2018-04-02T05:38:06.954Z,7.80
2018-04-02T05:39:09.422Z,7.80
2018-04-02T05:40:12.173Z,7.80
2018-04-02T05:41:14.638Z,7.90
2018-04-02T05:42:17.109Z,7.90
2018-04-02T05:43:19.577Z,7.90
2018-04-02T05:44:22.044Z,7.90
2018-04-02T05:45:24.533Z,7.90
2018-04-02T05:46:27.001Z,7.90
2018-04-02T05:47:29.486Z,7.90
2018-04-02T05:48:32.713Z,8.00
2018-04-02T05:49:35.193Z,8.00
2018-04-02T05:50:37.678Z,8.00
2018-04-02T05:51:40.143Z,8.00
2018-04-02T05:52:42.609Z,8.00
2018-04-02T05:53:45.083Z,8.00
2018-04-02T05:54:48.313Z,8.00
2018-04-02T05:55:50.794Z,8.00
2018-04-02T05:56:53.260Z,8.00
2018-04-02T05:57:55.718Z,8.00
2018-04-02T05:58:58.182Z,8.00
2018-04-02T06:00:00.652Z,8.00
2018-04-02T06:01:03.181Z,8.10
2018-04-02T06:02:05.642Z,8.10
2018-04-02T06:03:08.112Z,8.10
2018-04-02T06:04:10.578Z,8.10
2018-04-02T06:05:13.056Z,8.10
2018-04-02T06:06:15.549Z,8.10
2018-04-02T06:07:18.025Z,8.10
2018-04-02T06:08:20.489Z,8.10
2018-04-02T06:09:22.953Z,8.10
2018-04-02T06:10:25.416Z,8.10
2018-04-02T06:11:27.925Z,8.10
2018-04-02T06:12:30.388Z,8.20
2018-04-02T06:13:32.857Z,8.20
2018-04-02T06:14:35.326Z,8.20
2018-04-02T06:15:37.797Z,8.20
2018-04-02T06:16:40.298Z,8.20
2018-04-02T06:17:42.753Z,8.20
2018-04-02T06:18:45.225Z,8.20
2018-04-02T06:19:47.701Z,8.30
2018-04-02T06:20:50.166Z,8.30
2018-04-02T06:21:52.658Z,8.20
2018-04-02T06:22:55.882Z,8.30
2018-04-02T06:23:58.373Z,8.30
2018-04-02T06:25:00.837Z,8.30
2018-04-02T06:26:03.301Z,8.30
2018-04-02T06:27:05.782Z,8.30
2018-04-02T06:28:09.017Z,8.30
2018-04-02T06:29:11.485Z,8.30
2018-04-02T06:30:13.977Z,8.40
2018-04-02T06:31:16.438Z,8.40
2018-04-02T06:32:18.923Z,8.40
2018-04-02T06:33:22.149Z,8.40
2018-04-02T06:34:24.615Z,8.40
2018-04-02T06:35:27.077Z,8.50
2018-04-02T06:36:29.545Z,8.50
2018-04-02T06:37:32.021Z,8.50
2018-04-02T06:38:34.492Z,8.50
2018-04-02T06:39:36.953Z,8.50
2018-04-02T06:40:39.421Z,8.60
2018-04-02T06:41:41.884Z,8.60
2018-04-02T06:42:44.374Z,8.60
2018-04-02T06:43:46.866Z,8.60
2018-04-02T06:44:50.094Z,8.70
2018-04-02T06:45:52.558Z,8.60
2018-04-02T06:46:55.025Z,8.70
2018-04-02T06:47:57.509Z,8.70
2018-04-02T06:48:59.991Z,8.70
2018-04-02T06:50:03.221Z,8.70
2018-04-02T06:51:05.685Z,8.70
2018-04-02T06:52:08.150Z,8.70
2018-04-02T06:53:10.638Z,8.70
2018-04-02T06:54:13.101Z,8.80
2018-04-02T06:55:15.569Z,8.80
2018-04-02T06:56:18.038Z,8.80
2018-04-02T06:57:20.505Z,8.80
2018-04-02T06:58:22.989Z,8.80
2018-04-02T06:59:26.224Z,8.80
2018-04-02T07:00:28.686Z,8.90
2018-04-02T07:01:31.149Z,8.90
2018-04-02T07:02:33.617Z,8.90
2018-04-02T07:03:36.096Z,8.90
2018-04-02T07:04:38.562Z,9.00
2018-04-02T07:05:41.025Z,9.00
2018-04-02T07:06:43.493Z,9.00
2018-04-02T07:07:45.953Z,9.00
2018-04-02T07:08:48.434Z,9.00
2018-04-02T07:09:52.405Z,9.00
2018-04-02T07:10:54.907Z,9.00
2018-04-02T07:11:57.349Z,9.00
2018-04-02T07:13:00.589Z,9.10
2018-04-02T07:14:03.073Z,9.00
2018-04-02T07:15:05.536Z,9.10
2018-04-02T07:16:08.006Z,9.10
2018-04-02T07:17:10.469Z,9.10
2018-04-02T07:18:12.941Z,9.10
2018-04-02T07:19:15.441Z,9.20
2018-04-02T07:20:18.669Z,9.20
2018-04-02T07:21:21.173Z,9.20
2018-04-02T07:22:23.687Z,9.20
2018-04-02T07:23:26.886Z,9.30
2018-04-02T07:24:29.373Z,9.30
2018-04-02T07:25:31.832Z,9.30
2018-04-02T07:26:34.309Z,9.30
2018-04-02T07:27:36.770Z,9.30
2018-04-02T07:28:39.237Z,9.40
2018-04-02T07:29:42.013Z,9.40
2018-04-02T07:30:44.481Z,9.40
2018-04-02T07:31:46.945Z,9.40
2018-04-02T07:32:49.409Z,9.50
2018-04-02T07:33:51.882Z,9.50
2018-04-02T07:34:54.370Z,9.50
2018-04-02T07:35:56.838Z,9.50
2018-04-02T07:36:59.306Z,9.50
2018-04-02T07:38:01.777Z,9.50
2018-04-02T07:39:04.242Z,9.60
2018-04-02T07:40:06.725Z,9.60
2018-04-02T07:41:09.226Z,9.60
2018-04-02T07:42:12.461Z,9.60
2018-04-02T07:43:14.929Z,9.60
2018-04-02T07:44:17.420Z,9.60
2018-04-02T07:45:19.929Z,9.60
2018-04-02T07:46:23.161Z,9.60
2018-04-02T07:47:25.630Z,9.60
2018-04-02T07:48:28.097Z,9.60
2018-04-02T07:49:30.561Z,9.60
2018-04-02T07:50:33.075Z,9.70
2018-04-02T07:51:36.290Z,9.70
2018-04-02T07:52:38.828Z,9.70
2018-04-02T07:53:41.290Z,9.70
2018-04-02T07:54:43.754Z,9.80
2018-04-02T07:55:46.237Z,9.80
2018-04-02T07:56:48.697Z,9.80
2018-04-02T07:57:51.169Z,9.80
2018-04-02T07:58:53.641Z,9.80
2018-04-02T07:59:56.102Z,9.90
2018-04-02T08:00:58.581Z,9.90
2018-04-02T08:02:01.045Z,9.90
2018-04-02T08:03:03.509Z,9.90
2018-04-02T08:04:05.969Z,9.90
2018-04-02T08:05:08.449Z,9.90
2018-04-02T08:06:10.925Z,9.90
2018-04-02T08:07:13.397Z,10.00
2018-04-02T08:08:16.501Z,10.00
2018-04-02T08:09:18.969Z,10.00
2018-04-02T08:10:21.434Z,10.10
2018-04-02T08:11:23.918Z,10.10
2018-04-02T08:12:26.385Z,10.10
2018-04-02T08:13:28.858Z,10.20
2018-04-02T08:14:31.321Z,10.20
2018-04-02T08:15:33.790Z,10.20
2018-04-02T08:16:36.281Z,10.20
2018-04-02T08:17:38.765Z,10.20
2018-04-02T08:18:42.000Z,10.30
2018-04-02T08:19:44.478Z,10.20
2018-04-02T08:20:46.945Z,10.30
2018-04-02T08:21:49.429Z,10.30
2018-04-02T08:22:51.901Z,10.30
2018-04-02T08:23:55.141Z,10.40
2018-04-02T08:24:57.605Z,10.40
2018-04-02T08:26:00.073Z,10.40
2018-04-02T08:27:02.572Z,10.50
2018-04-02T08:28:05.037Z,10.50
2018-04-02T08:29:07.509Z,10.50
2018-04-02T08:30:11.137Z,10.60
2018-04-02T08:31:13.604Z,10.50
2018-04-02T08:32:16.097Z,10.60
2018-04-02T08:33:18.565Z,10.60
2018-04-02T08:34:21.037Z,10.60
2018-04-02T08:35:23.505Z,10.70
2018-04-02T08:36:25.979Z,10.70
2018-04-02T08:37:28.493Z,10.70
2018-04-02T08:38:30.965Z,10.80
2018-04-02T08:39:33.486Z,10.80
2018-04-02T08:40:35.917Z,10.80
2018-04-02T08:41:38.389Z,10.80
2018-04-02T08:42:40.899Z,10.80
2018-04-02T08:43:43.366Z,10.90
2018-04-02T08:44:45.837Z,10.90
2018-04-02T08:45:48.309Z,10.90
2018-04-02T08:46:50.778Z,10.90
2018-04-02T08:47:53.269Z,11.00
2018-04-02T08:48:55.740Z,11.00
2018-04-02T08:49:58.205Z,11.00
2018-04-02T08:51:02.185Z,11.10
2018-04-02T08:52:04.653Z,11.10
2018-04-02T08:53:07.133Z,11.10
2018-04-02T08:54:09.645Z,11.10
2018-04-02T08:55:12.118Z,11.10
2018-04-02T08:56:14.593Z,11.20
2018-04-02T08:57:17.062Z,11.20
2018-04-02T08:58:19.542Z,11.20
2018-04-02T08:59:22.008Z,11.20
2018-04-02T09:00:24.482Z,11.20
2018-04-02T09:01:26.953Z,11.30
2018-04-02T09:02:29.426Z,11.30
2018-04-02T09:03:32.985Z,11.30
2018-04-02T09:04:35.450Z,11.30
2018-04-02T09:05:37.921Z,11.30
2018-04-02T09:06:40.389Z,11.40
2018-04-02T09:07:42.861Z,11.40
2018-04-02T09:08:45.353Z,11.40
2018-04-02T09:09:48.581Z,11.50
2018-04-02T09:10:51.053Z,11.50
2018-04-02T09:11:53.521Z,11.50
2018-04-02T09:12:56.004Z,11.60
2018-04-02T09:13:58.512Z,11.60
2018-04-02T09:15:00.977Z,11.60
2018-04-02T09:16:03.453Z,11.60
2018-04-02T09:17:05.924Z,11.60
2018-04-02T09:18:08.406Z,11.70
2018-04-02T09:19:10.893Z,11.70
2018-04-02T09:20:13.361Z,11.70
2018-04-02T09:21:15.833Z,11.70
2018-04-02T09:22:19.089Z,11.80
2018-04-02T09:23:21.570Z,11.70
2018-04-02T09:24:24.301Z,11.80
2018-04-02T09:25:26.769Z,11.80
2018-04-02T09:26:29.254Z,11.80
2018-04-02T09:27:31.721Z,11.80
2018-04-02T09:28:34.194Z,11.90
2018-04-02T09:29:36.685Z,11.90
2018-04-02T09:30:39.925Z,12.00
2018-04-02T09:31:42.393Z,11.90
2018-04-02T09:32:44.870Z,12.00
2018-04-02T09:33:47.343Z,12.00
2018-04-02T09:34:50.109Z,12.10
2018-04-02T09:35:52.585Z,12.10
2018-04-02T09:36:55.054Z,12.20
2018-04-02T09:37:58.285Z,12.30
2018-04-02T09:39:00.753Z,12.20
2018-04-02T09:40:03.239Z,12.30
2018-04-02T09:41:05.714Z,12.30
2018-04-02T09:42:08.181Z,12.30
2018-04-02T09:43:10.661Z,12.40
2018-04-02T09:44:13.901Z,12.40
2018-04-02T09:45:16.417Z,12.40
2018-04-02T09:46:19.711Z,12.40
2018-04-02T09:47:22.186Z,12.40
2018-04-02T09:48:24.653Z,12.40
2018-04-02T09:49:27.126Z,12.50
2018-04-02T09:50:29.619Z,12.50
2018-04-02T09:51:32.086Z,12.50
2018-04-02T09:52:34.558Z,12.50
2018-04-02T09:53:37.027Z,12.50
2018-04-02T09:54:39.501Z,12.60
2018-04-02T09:55:42.764Z,12.60
2018-04-02T09:56:45.238Z,12.50
2018-04-02T09:57:47.705Z,12.60
2018-04-02T09:58:50.183Z,12.60
2018-04-02T09:59:53.425Z,12.60
2018-04-02T10:01:06.662Z,12.60
2018-04-02T10:02:14.100Z,12.60
2018-04-02T10:03:16.570Z,12.70
2018-04-02T10:04:19.042Z,12.70
2018-04-02T10:05:21.520Z,12.70
2018-04-02T10:06:24.013Z,12.70
2018-04-02T10:07:26.480Z,12.70
2018-04-02T10:08:29.717Z,12.80
2018-04-02T10:09:32.185Z,12.80
2018-04-02T10:10:34.673Z,12.80
2018-04-02T10:11:37.177Z,12.80
2018-04-02T10:12:39.647Z,12.90
2018-04-02T10:13:42.113Z,12.90
2018-04-02T10:14:44.578Z,13.00
2018-04-02T10:15:47.042Z,13.00
2018-04-02T10:16:49.533Z,13.00
2018-04-02T10:17:51.997Z,13.10
2018-04-02T10:18:54.461Z,13.10
2018-04-02T10:19:56.929Z,13.20
2018-04-02T10:20:59.397Z,13.20
2018-04-02T10:22:01.870Z,13.20
2018-04-02T10:23:04.338Z,13.30
2018-04-02T10:24:06.850Z,13.30
2018-04-02T10:25:09.283Z,13.30
2018-04-02T10:26:12.520Z,13.30
2018-04-02T10:27:15.034Z,13.30
2018-04-02T10:28:17.509Z,13.30
2018-04-02T10:29:20.741Z,13.40
2018-04-02T10:30:23.204Z,13.40
2018-04-02T10:31:25.675Z,13.40
2018-04-02T10:32:28.165Z,13.50
2018-04-02T10:33:30.630Z,13.50
2018-04-02T10:34:33.138Z,13.50
2018-04-02T10:35:35.599Z,13.60
2018-04-02T10:36:38.089Z,13.60
2018-04-02T10:37:40.570Z,13.60
2018-04-02T10:38:43.030Z,13.60
2018-04-02T10:39:45.494Z,13.60
2018-04-02T10:40:47.961Z,13.60
2018-04-02T10:41:50.421Z,13.60
2018-04-02T10:42:52.921Z,13.60
2018-04-02T10:43:55.390Z,13.50
2018-04-02T10:44:58.625Z,13.60
2018-04-02T10:46:01.088Z,13.50
2018-04-02T10:47:03.549Z,13.60
2018-04-02T10:48:06.357Z,13.60
2018-04-02T10:49:08.821Z,13.60
2018-04-02T10:50:11.289Z,13.60
2018-04-02T10:51:14.518Z,13.70
2018-04-02T10:52:16.981Z,13.70
2018-04-02T10:53:19.460Z,13.80
2018-04-02T10:54:21.929Z,13.80
2018-04-02T10:55:24.393Z,13.80
2018-04-02T10:56:26.856Z,13.90
2018-04-02T10:57:29.322Z,13.90
2018-04-02T10:58:31.801Z,14.00
2018-04-02T10:59:34.275Z,14.00
2018-04-02T11:00:36.746Z,14.00
2018-04-02T11:01:39.213Z,14.00
2018-04-02T11:02:41.677Z,14.00
2018-04-02T11:03:44.157Z,14.10
2018-04-02T11:04:47.389Z,14.10
2018-04-02T11:05:49.849Z,14.00
2018-04-02T11:06:52.319Z,14.10
2018-04-02T11:07:54.791Z,14.10
2018-04-02T11:08:57.337Z,14.10
2018-04-02T11:09:59.807Z,14.10
2018-04-02T11:11:02.270Z,14.10
2018-04-02T11:12:04.728Z,14.10
2018-04-02T11:13:07.206Z,14.10
2018-04-02T11:14:09.931Z,14.20
2018-04-02T11:15:13.162Z,14.30
2018-04-02T11:16:15.630Z,14.20
2018-04-02T11:17:18.099Z,14.30
2018-04-02T11:18:20.565Z,14.30
2018-04-02T11:19:23.057Z,14.30
2018-04-02T11:20:25.525Z,14.40
2018-04-02T11:21:27.994Z,14.40
2018-04-02T11:22:31.225Z,14.40
2018-04-02T11:23:33.690Z,14.40
2018-04-02T11:24:36.173Z,14.40
2018-04-02T11:25:38.642Z,14.40
2018-04-02T11:26:41.114Z,14.50
2018-04-02T11:27:43.581Z,14.50
2018-04-02T11:28:46.057Z,14.50
2018-04-02T11:29:48.821Z,14.50
2018-04-02T11:30:51.646Z,14.60
2018-04-02T11:31:54.122Z,14.60
2018-04-02T11:32:56.585Z,14.60
2018-04-02T11:33:59.053Z,14.60
2018-04-02T11:35:01.536Z,14.60
2018-04-02T11:36:03.997Z,14.60
2018-04-02T11:37:06.464Z,14.70
2018-04-02T11:38:08.937Z,14.70
2018-04-02T11:39:11.409Z,14.70
2018-04-02T11:40:13.893Z,14.70
2018-04-02T11:41:17.125Z,14.70
2018-04-02T11:42:19.594Z,14.70
2018-04-02T11:43:22.062Z,14.80
2018-04-02T11:44:24.530Z,14.80
2018-04-02T11:45:27.313Z,14.80
2018-04-02T11:46:29.784Z,14.80
2018-04-02T11:47:32.265Z,14.90
2018-04-02T11:48:35.534Z,14.80
2018-04-02T11:49:38.001Z,14.80
2018-04-02T11:50:40.493Z,14.80
2018-04-02T11:51:43.725Z,14.80
2018-04-02T11:52:46.202Z,14.80
2018-04-02T11:53:48.681Z,14.80
2018-04-02T11:54:51.148Z,14.80
2018-04-02T11:55:54.396Z,14.80
2018-04-02T11:56:56.865Z,14.80
2018-04-02T11:57:59.340Z,14.80
2018-04-02T11:59:01.801Z,14.80
2018-04-02T12:00:04.271Z,14.90
2018-04-02T12:01:06.771Z,14.90
2018-04-02T12:02:10.004Z,14.90
2018-04-02T12:03:12.486Z,14.90
2018-04-02T12:04:14.945Z,15.00
2018-04-02T12:05:17.416Z,15.00
2018-04-02T12:06:19.901Z,15.00
2018-04-02T12:07:23.177Z,15.00
2018-04-02T12:08:26.414Z,15.00
2018-04-02T12:09:28.877Z,15.00
2018-04-02T12:10:31.345Z,15.00
2018-04-02T12:11:33.843Z,15.00
2018-04-02T12:12:36.302Z,15.00
2018-04-02T12:13:38.761Z,15.00
2018-04-02T12:14:41.229Z,14.90
2018-04-02T12:15:43.693Z,14.90
2018-04-02T12:16:46.181Z,14.90
2018-04-02T12:17:49.414Z,14.90
2018-04-02T12:18:51.881Z,14.90
2018-04-02T12:19:54.353Z,14.90
2018-04-02T12:20:56.841Z,14.90
2018-04-02T12:21:59.329Z,14.90
2018-04-02T12:23:02.569Z,14.80
2018-04-02T12:24:05.034Z,14.80
2018-04-02T12:25:07.517Z,14.80
2018-04-02T12:26:09.987Z,14.80
2018-04-02T12:27:13.241Z,14.70
2018-04-02T12:28:16.330Z,14.70
2018-04-02T12:29:18.785Z,14.70
2018-04-02T12:30:21.246Z,14.80
2018-04-02T12:31:23.713Z,14.70
2018-04-02T12:32:26.193Z,14.70
2018-04-02T12:33:28.660Z,14.70
2018-04-02T12:34:31.901Z,14.60
2018-04-02T12:35:34.362Z,14.60
2018-04-02T12:36:36.829Z,14.60
2018-04-02T12:37:39.305Z,14.60
2018-04-02T12:38:41.773Z,14.50
2018-04-02T12:39:44.237Z,14.50
2018-04-02T12:40:46.701Z,14.50
2018-04-02T12:41:49.161Z,14.50
2018-04-02T12:42:51.645Z,14.50
2018-04-02T12:43:54.105Z,14.40
2018-04-02T12:44:56.584Z,14.40
2018-04-02T12:45:59.054Z,14.30
2018-04-02T12:47:01.517Z,14.30
2018-04-02T12:48:04.002Z,14.30
2018-04-02T12:49:07.229Z,14.30
2018-04-02T12:50:09.689Z,14.20
2018-04-02T12:51:12.157Z,14.30
2018-04-02T12:52:14.617Z,14.30
2018-04-02T12:53:17.093Z,14.20
2018-04-02T12:54:19.557Z,14.30
2018-04-02T12:55:22.021Z,14.20
2018-04-02T12:56:24.485Z,14.30
2018-04-02T12:57:27.017Z,14.30
2018-04-02T12:58:29.849Z,14.30
2018-04-02T12:59:32.317Z,14.30
2018-04-02T13:00:34.777Z,14.30
2018-04-02T13:01:37.337Z,14.40
2018-04-02T13:02:39.805Z,14.40
2018-04-02T13:03:42.290Z,14.50
2018-04-02T13:04:45.597Z,14.50
2018-04-02T13:05:47.997Z,14.50
2018-04-02T13:06:50.462Z,14.60
2018-04-02T13:07:52.921Z,14.60
2018-04-02T13:08:55.409Z,14.60
2018-04-02T13:09:57.877Z,14.60
2018-04-02T13:11:00.336Z,14.70
2018-04-02T13:12:02.809Z,14.70
2018-04-02T13:13:05.281Z,14.70
2018-04-02T13:14:07.783Z,14.80
2018-04-02T13:15:10.257Z,14.80
2018-04-02T13:16:12.733Z,14.80
2018-04-02T13:17:15.193Z,14.90
2018-04-02T13:18:17.657Z,14.90
2018-04-02T13:19:20.171Z,14.90
2018-04-02T13:20:22.609Z,14.90
2018-04-02T13:21:25.065Z,15.00
2018-04-02T13:22:27.525Z,15.00
2018-04-02T13:23:30.014Z,15.00
2018-04-02T13:24:32.497Z,15.00
2018-04-02T13:25:36.149Z,15.10
2018-04-02T13:26:38.609Z,15.00
2018-04-02T13:27:41.080Z,15.10
2018-04-02T13:28:43.545Z,15.10
2018-04-02T13:29:46.025Z,15.20
2018-04-02T13:30:48.489Z,15.20
2018-04-02T13:31:50.951Z,15.20
2018-04-02T13:32:53.417Z,15.30
2018-04-02T13:33:57.216Z,15.30
2018-04-02T13:34:59.690Z,15.30
2018-04-02T13:36:02.160Z,15.40
2018-04-02T13:37:05.404Z,15.50
2018-04-02T13:38:07.875Z,15.40
2018-04-02T13:39:10.334Z,15.50
2018-04-02T13:40:12.823Z,15.50
2018-04-02T13:41:15.287Z,15.60
2018-04-02T13:42:17.777Z,15.60